sensor_id;sensor_type;location;lat;lon;timestamp;temperature;humidity
46752;DHT22;32497;48.936;9.270;2023-02-22T00:02:19;4.30;86.70
46752;DHT22;32497;48.936;9.270;2023-02-22T00:07:20;4.10;87.00
46752;DHT22;32497;48.936;9.270;2023-02-22T00:12:23;4.10;87.40
46752;DHT22;32497;48.936;9.270;2023-02-22T00:17:24;4.10;87.60
46752;DHT22;32497;48.936;9.270;2023-02-22T00:22:25;4.10;87.90
46752;DHT22;32497;48.936;9.270;2023-02-22T00:27:27;4.30;88.00
46752;DHT22;32497;48.936;9.270;2023-02-22T00:32:28;4.30;87.60
46752;DHT22;32497;48.936;9.270;2023-02-22T00:37:30;4.30;87.60
46752;DHT22;32497;48.936;9.270;2023-02-22T00:42:32;4.30;87.70
46752;DHT22;32497;48.936;9.270;2023-02-22T00:47:33;4.50;88.00
46752;DHT22;32497;48.936;9.270;2023-02-22T00:52:34;4.70;87.10
46752;DHT22;32497;48.936;9.270;2023-02-22T00:57:37;4.60;87.00
46752;DHT22;32497;48.936;9.270;2023-02-22T01:02:39;4.70;87.00
46752;DHT22;32497;48.936;9.270;2023-02-22T01:07:40;4.80;86.60
46752;DHT22;32497;48.936;9.270;2023-02-22T01:12:42;4.70;86.20
46752;DHT22;32497;48.936;9.270;2023-02-22T01:17:44;4.40;86.00
46752;DHT22;32497;48.936;9.270;2023-02-22T01:22:47;4.00;86.50
46752;DHT22;32497;48.936;9.270;2023-02-22T01:27:52;3.80;87.70
46752;DHT22;32497;48.936;9.270;2023-02-22T01:32:53;4.00;88.50
46752;DHT22;32497;48.936;9.270;2023-02-22T01:37:54;4.10;88.30
46752;DHT22;32497;48.936;9.270;2023-02-22T01:42:58;4.00;88.30
46752;DHT22;32497;48.936;9.270;2023-02-22T01:48:02;4.10;88.60
46752;DHT22;32497;48.936;9.270;2023-02-22T01:53:05;4.10;88.50
46752;DHT22;32497;48.936;9.270;2023-02-22T01:58:09;4.10;88.50
46752;DHT22;32497;48.936;9.270;2023-02-22T02:03:14;4.10;88.40
46752;DHT22;32497;48.936;9.270;2023-02-22T02:08:26;3.90;88.40
46752;DHT22;32497;48.936;9.270;2023-02-22T02:13:30;3.90;88.60
46752;DHT22;32497;48.936;9.270;2023-02-22T02:18:31;3.70;88.80
46752;DHT22;32497;48.936;9.270;2023-02-22T02:23:51;3.70;88.90
46752;DHT22;32497;48.936;9.270;2023-02-22T02:34:34;3.70;89.10
46752;DHT22;32497;48.936;9.270;2023-02-22T02:39:42;3.60;89.10
46752;DHT22;32497;48.936;9.270;2023-02-22T02:44:54;3.60;89.10
46752;DHT22;32497;48.936;9.270;2023-02-22T02:50:02;3.50;89.10
46752;DHT22;32497;48.936;9.270;2023-02-22T02:55:05;3.60;89.30
46752;DHT22;32497;48.936;9.270;2023-02-22T03:00:08;3.60;89.40
46752;DHT22;32497;48.936;9.270;2023-02-22T03:05:27;3.70;89.40
46752;DHT22;32497;48.936;9.270;2023-02-22T03:10:41;3.80;89.30
46752;DHT22;32497;48.936;9.270;2023-02-22T03:15:49;3.80;88.90
46752;DHT22;32497;48.936;9.270;2023-02-22T03:20:58;3.60;88.50
46752;DHT22;32497;48.936;9.270;2023-02-22T03:26:04;3.60;88.10
46752;DHT22;32497;48.936;9.270;2023-02-22T03:31:12;3.40;88.00
46752;DHT22;32497;48.936;9.270;2023-02-22T03:36:20;3.20;88.10
46752;DHT22;32497;48.936;9.270;2023-02-22T03:41:24;3.10;88.30
46752;DHT22;32497;48.936;9.270;2023-02-22T03:46:27;2.80;88.70
46752;DHT22;32497;48.936;9.270;2023-02-22T03:51:30;2.90;89.20
46752;DHT22;32497;48.936;9.270;2023-02-22T03:56:38;2.80;88.60
46752;DHT22;32497;48.936;9.270;2023-02-22T04:01:40;2.80;88.60
46752;DHT22;32497;48.936;9.270;2023-02-22T04:06:43;2.70;88.70
46752;DHT22;32497;48.936;9.270;2023-02-22T04:11:45;2.60;89.20
46752;DHT22;32497;48.936;9.270;2023-02-22T04:16:47;2.60;89.40
46752;DHT22;32497;48.936;9.270;2023-02-22T04:21:49;2.60;90.00
46752;DHT22;32497;48.936;9.270;2023-02-22T04:26:56;2.60;89.80
46752;DHT22;32497;48.936;9.270;2023-02-22T04:31:58;2.50;89.80
46752;DHT22;32497;48.936;9.270;2023-02-22T04:37:00;2.50;90.30
46752;DHT22;32497;48.936;9.270;2023-02-22T04:42:01;2.50;90.30
46752;DHT22;32497;48.936;9.270;2023-02-22T04:47:03;2.50;90.00
46752;DHT22;32497;48.936;9.270;2023-02-22T04:52:05;2.40;90.10
46752;DHT22;32497;48.936;9.270;2023-02-22T04:57:10;2.30;89.90
46752;DHT22;32497;48.936;9.270;2023-02-22T05:02:11;2.30;90.20
46752;DHT22;32497;48.936;9.270;2023-02-22T05:07:14;2.30;90.30
46752;DHT22;32497;48.936;9.270;2023-02-22T05:12:15;2.40;90.60
46752;DHT22;32497;48.936;9.270;2023-02-22T05:17:16;2.30;90.50
46752;DHT22;32497;48.936;9.270;2023-02-22T05:22:18;2.30;90.40
46752;DHT22;32497;48.936;9.270;2023-02-22T05:27:19;2.30;90.40
46752;DHT22;32497;48.936;9.270;2023-02-22T05:32:20;2.30;90.30
46752;DHT22;32497;48.936;9.270;2023-02-22T05:37:23;2.30;90.60
46752;DHT22;32497;48.936;9.270;2023-02-22T05:42:24;2.30;90.30
46752;DHT22;32497;48.936;9.270;2023-02-22T05:47:26;2.30;90.30
46752;DHT22;32497;48.936;9.270;2023-02-22T05:52:28;2.30;90.60
46752;DHT22;32497;48.936;9.270;2023-02-22T05:57:30;2.30;90.50
46752;DHT22;32497;48.936;9.270;2023-02-22T06:02:31;2.30;90.80
46752;DHT22;32497;48.936;9.270;2023-02-22T06:07:33;2.30;90.50
46752;DHT22;32497;48.936;9.270;2023-02-22T06:12:34;2.30;90.10
46752;DHT22;32497;48.936;9.270;2023-02-22T06:17:36;2.40;90.60
46752;DHT22;32497;48.936;9.270;2023-02-22T06:22:39;2.40;90.60
46752;DHT22;32497;48.936;9.270;2023-02-22T06:27:40;2.30;90.50
46752;DHT22;32497;48.936;9.270;2023-02-22T06:32:41;2.40;90.30
46752;DHT22;32497;48.936;9.270;2023-02-22T06:37:44;2.40;90.20
46752;DHT22;32497;48.936;9.270;2023-02-22T06:42:47;2.50;90.20
46752;DHT22;32497;48.936;9.270;2023-02-22T06:47:48;2.60;90.20
46752;DHT22;32497;48.936;9.270;2023-02-22T06:52:51;2.80;90.30
46752;DHT22;32497;48.936;9.270;2023-02-22T06:57:52;2.90;90.40
46752;DHT22;32497;48.936;9.270;2023-02-22T07:02:54;3.10;90.20
46752;DHT22;32497;48.936;9.270;2023-02-22T07:08:03;3.20;90.00
46752;DHT22;32497;48.936;9.270;2023-02-22T07:13:06;3.50;89.90
46752;DHT22;32497;48.936;9.270;2023-02-22T07:18:07;3.70;89.80
46752;DHT22;32497;48.936;9.270;2023-02-22T07:23:13;4.00;89.30
46752;DHT22;32497;48.936;9.270;2023-02-22T07:28:14;4.20;89.20
46752;DHT22;32497;48.936;9.270;2023-02-22T07:33:15;4.50;88.20
46752;DHT22;32497;48.936;9.270;2023-02-22T07:38:18;4.70;87.50
46752;DHT22;32497;48.936;9.270;2023-02-22T07:43:21;5.00;87.80
46752;DHT22;32497;48.936;9.270;2023-02-22T07:48:25;5.10;85.60
46752;DHT22;32497;48.936;9.270;2023-02-22T07:53:29;5.30;86.00
46752;DHT22;32497;48.936;9.270;2023-02-22T07:58:31;5.40;85.90
46752;DHT22;32497;48.936;9.270;2023-02-22T08:03:33;5.50;84.90
46752;DHT22;32497;48.936;9.270;2023-02-22T08:08:36;5.60;84.80
46752;DHT22;32497;48.936;9.270;2023-02-22T08:13:37;5.30;84.10
46752;DHT22;32497;48.936;9.270;2023-02-22T08:18:39;5.60;85.20
46752;DHT22;32497;48.936;9.270;2023-02-22T08:23:41;5.80;83.40
46752;DHT22;32497;48.936;9.270;2023-02-22T08:28:42;6.00;84.00
46752;DHT22;32497;48.936;9.270;2023-02-22T08:33:46;6.10;82.50
46752;DHT22;32497;48.936;9.270;2023-02-22T08:38:49;6.30;82.10
46752;DHT22;32497;48.936;9.270;2023-02-22T08:43:50;6.40;80.80
46752;DHT22;32497;48.936;9.270;2023-02-22T08:48:51;6.50;80.70
46752;DHT22;32497;48.936;9.270;2023-02-22T08:53:54;6.60;81.80
46752;DHT22;32497;48.936;9.270;2023-02-22T08:58:55;7.00;81.70
46752;DHT22;32497;48.936;9.270;2023-02-22T09:03:56;7.30;80.70
46752;DHT22;32497;48.936;9.270;2023-02-22T09:08:59;7.70;78.40
46752;DHT22;32497;48.936;9.270;2023-02-22T09:14:00;8.00;75.50
46752;DHT22;32497;48.936;9.270;2023-02-22T09:19:01;8.20;75.10
46752;DHT22;32497;48.936;9.270;2023-02-22T09:24:04;8.40;76.00
46752;DHT22;32497;48.936;9.270;2023-02-22T09:29:06;8.80;75.20
46752;DHT22;32497;48.936;9.270;2023-02-22T09:34:07;9.10;71.90
46752;DHT22;32497;48.936;9.270;2023-02-22T09:39:10;9.40;72.00
46752;DHT22;32497;48.936;9.270;2023-02-22T09:44:18;9.40;69.70
46752;DHT22;32497;48.936;9.270;2023-02-22T09:49:26;9.50;69.80
46752;DHT22;32497;48.936;9.270;2023-02-22T09:54:33;9.70;70.40
46752;DHT22;32497;48.936;9.270;2023-02-22T09:59:41;10.20;68.60
46752;DHT22;32497;48.936;9.270;2023-02-22T10:04:46;10.50;66.50
46752;DHT22;32497;48.936;9.270;2023-02-22T10:09:53;10.80;66.40
46752;DHT22;32497;48.936;9.270;2023-02-22T10:15:25;11.20;65.90
46752;DHT22;32497;48.936;9.270;2023-02-22T10:20:41;11.40;64.40
46752;DHT22;32497;48.936;9.270;2023-02-22T10:25:50;12.00;63.70
46752;DHT22;32497;48.936;9.270;2023-02-22T10:30:57;12.70;61.30
46752;DHT22;32497;48.936;9.270;2023-02-22T10:36:02;12.70;59.70
46752;DHT22;32497;48.936;9.270;2023-02-22T10:41:18;12.90;60.40
46752;DHT22;32497;48.936;9.270;2023-02-22T10:46:21;13.30;58.70
46752;DHT22;32497;48.936;9.270;2023-02-22T10:51:23;13.40;57.30
46752;DHT22;32497;48.936;9.270;2023-02-22T10:56:26;13.60;56.20
46752;DHT22;32497;48.936;9.270;2023-02-22T11:01:34;13.80;55.30
46752;DHT22;32497;48.936;9.270;2023-02-22T11:06:36;13.50;55.80
46752;DHT22;32497;48.936;9.270;2023-02-22T11:11:41;13.30;56.80
46752;DHT22;32497;48.936;9.270;2023-02-22T11:16:46;13.10;56.30
46752;DHT22;32497;48.936;9.270;2023-02-22T11:21:51;13.20;56.90
46752;DHT22;32497;48.936;9.270;2023-02-22T11:26:57;13.60;55.30
46752;DHT22;32497;48.936;9.270;2023-02-22T11:32:02;13.90;54.30
46752;DHT22;32497;48.936;9.270;2023-02-22T11:37:26;14.10;53.60
46752;DHT22;32497;48.936;9.270;2023-02-22T11:42:29;14.20;53.40
46752;DHT22;32497;48.936;9.270;2023-02-22T11:47:30;14.50;52.50
46752;DHT22;32497;48.936;9.270;2023-02-22T11:52:36;14.80;52.30
46752;DHT22;32497;48.936;9.270;2023-02-22T11:57:52;15.00;52.10
46752;DHT22;32497;48.936;9.270;2023-02-22T12:08:27;14.90;52.80
46752;DHT22;32497;48.936;9.270;2023-02-22T12:13:44;14.70;53.30
46752;DHT22;32497;48.936;9.270;2023-02-22T12:19:01;14.80;53.60
46752;DHT22;32497;48.936;9.270;2023-02-22T12:24:06;15.00;54.00
46752;DHT22;32497;48.936;9.270;2023-02-22T12:29:17;15.00;54.00
46752;DHT22;32497;48.936;9.270;2023-02-22T12:34:27;15.10;54.40
46752;DHT22;32497;48.936;9.270;2023-02-22T12:39:38;15.00;54.20
46752;DHT22;32497;48.936;9.270;2023-02-22T12:44:45;14.70;55.70
46752;DHT22;32497;48.936;9.270;2023-02-22T12:49:54;14.00;57.00
46752;DHT22;32497;48.936;9.270;2023-02-22T12:55:03;14.20;57.50
46752;DHT22;32497;48.936;9.270;2023-02-22T13:00:15;14.30;57.00
46752;DHT22;32497;48.936;9.270;2023-02-22T13:05:18;14.90;56.80
46752;DHT22;32497;48.936;9.270;2023-02-22T13:10:28;15.00;56.10
46752;DHT22;32497;48.936;9.270;2023-02-22T13:15:38;15.70;53.20
46752;DHT22;32497;48.936;9.270;2023-02-22T13:20:45;16.20;52.40
46752;DHT22;32497;48.936;9.270;2023-02-22T13:25:50;16.90;51.40
46752;DHT22;32497;48.936;9.270;2023-02-22T13:31:06;17.90;48.10
46752;DHT22;32497;48.936;9.270;2023-02-22T13:36:29;19.20;45.10
46752;DHT22;32497;48.936;9.270;2023-02-22T13:41:47;20.00;42.80
46752;DHT22;32497;48.936;9.270;2023-02-22T13:52:33;20.20;41.70
46752;DHT22;32497;48.936;9.270;2023-02-22T13:57:39;20.70;40.30
46752;DHT22;32497;48.936;9.270;2023-02-22T14:08:41;19.80;40.60
46752;DHT22;32497;48.936;9.270;2023-02-22T14:19:19;18.30;44.40
46752;DHT22;32497;48.936;9.270;2023-02-22T14:24:22;17.60;47.50
46752;DHT22;32497;48.936;9.270;2023-02-22T14:29:23;16.60;49.00
46752;DHT22;32497;48.936;9.270;2023-02-22T14:34:42;15.70;52.00
46752;DHT22;32497;48.936;9.270;2023-02-22T14:39:47;15.00;54.80
46752;DHT22;32497;48.936;9.270;2023-02-22T14:44:53;14.50;56.70
46752;DHT22;32497;48.936;9.270;2023-02-22T14:50:03;14.30;58.20
46752;DHT22;32497;48.936;9.270;2023-02-22T14:55:15;14.30;58.10
46752;DHT22;32497;48.936;9.270;2023-02-22T15:00:19;14.30;58.20
46752;DHT22;32497;48.936;9.270;2023-02-22T15:05:21;14.20;59.20
46752;DHT22;32497;48.936;9.270;2023-02-22T15:10:27;13.90;59.70
46752;DHT22;32497;48.936;9.270;2023-02-22T15:15:30;13.80;59.40
46752;DHT22;32497;48.936;9.270;2023-02-22T15:20:33;13.90;59.50
46752;DHT22;32497;48.936;9.270;2023-02-22T15:25:36;14.20;58.60
46752;DHT22;32497;48.936;9.270;2023-02-22T15:30:38;14.00;59.00
46752;DHT22;32497;48.936;9.270;2023-02-22T15:35:39;13.70;60.20
46752;DHT22;32497;48.936;9.270;2023-02-22T15:40:41;13.40;61.20
46752;DHT22;32497;48.936;9.270;2023-02-22T15:45:43;13.20;61.50
46752;DHT22;32497;48.936;9.270;2023-02-22T15:51:00;13.20;61.60
46752;DHT22;32497;48.936;9.270;2023-02-22T15:56:06;13.20;62.00
46752;DHT22;32497;48.936;9.270;2023-02-22T16:01:11;13.20;61.80
46752;DHT22;32497;48.936;9.270;2023-02-22T16:06:16;13.20;61.70
46752;DHT22;32497;48.936;9.270;2023-02-22T16:11:25;13.20;62.10
46752;DHT22;32497;48.936;9.270;2023-02-22T16:16:29;13.00;62.60
46752;DHT22;32497;48.936;9.270;2023-02-22T16:21:49;12.90;63.30
46752;DHT22;32497;48.936;9.270;2023-02-22T16:27:05;12.80;63.20
46752;DHT22;32497;48.936;9.270;2023-02-22T16:32:07;12.60;64.00
46752;DHT22;32497;48.936;9.270;2023-02-22T16:37:19;12.40;64.50
46752;DHT22;32497;48.936;9.270;2023-02-22T16:42:22;12.40;64.40
46752;DHT22;32497;48.936;9.270;2023-02-22T16:47:23;12.20;64.90
46752;DHT22;32497;48.936;9.270;2023-02-22T16:52:24;12.10;65.70
46752;DHT22;32497;48.936;9.270;2023-02-22T16:57:27;11.90;65.80
46752;DHT22;32497;48.936;9.270;2023-02-22T17:02:31;11.90;65.80
46752;DHT22;32497;48.936;9.270;2023-02-22T17:07:32;11.70;66.90
46752;DHT22;32497;48.936;9.270;2023-02-22T17:12:35;11.50;67.30
46752;DHT22;32497;48.936;9.270;2023-02-22T17:17:36;11.30;68.00
46752;DHT22;32497;48.936;9.270;2023-02-22T17:22:37;11.00;68.90
46752;DHT22;32497;48.936;9.270;2023-02-22T17:27:40;10.80;70.00
46752;DHT22;32497;48.936;9.270;2023-02-22T17:32:41;10.50;71.20
46752;DHT22;32497;48.936;9.270;2023-02-22T17:37:42;10.50;70.90
46752;DHT22;32497;48.936;9.270;2023-02-22T17:42:45;10.40;70.50
46752;DHT22;32497;48.936;9.270;2023-02-22T17:47:46;10.40;69.90
46752;DHT22;32497;48.936;9.270;2023-02-22T17:52:54;10.20;70.20
46752;DHT22;32497;48.936;9.270;2023-02-22T17:57:57;10.10;70.10
46752;DHT22;32497;48.936;9.270;2023-02-22T18:02:59;10.10;69.60
46752;DHT22;32497;48.936;9.270;2023-02-22T18:08:11;10.00;70.00
46752;DHT22;32497;48.936;9.270;2023-02-22T18:13:16;9.90;70.20
46752;DHT22;32497;48.936;9.270;2023-02-22T18:18:21;9.80;70.50
46752;DHT22;32497;48.936;9.270;2023-02-22T18:23:28;9.70;71.30
46752;DHT22;32497;48.936;9.270;2023-02-22T18:28:34;9.60;71.30
46752;DHT22;32497;48.936;9.270;2023-02-22T18:33:45;9.70;71.10
46752;DHT22;32497;48.936;9.270;2023-02-22T18:38:52;9.70;71.50
46752;DHT22;32497;48.936;9.270;2023-02-22T18:44:05;9.70;71.20
46752;DHT22;32497;48.936;9.270;2023-02-22T18:49:12;9.70;71.90
46752;DHT22;32497;48.936;9.270;2023-02-22T18:54:17;9.70;71.60
46752;DHT22;32497;48.936;9.270;2023-02-22T18:59:25;9.80;71.60
46752;DHT22;32497;48.936;9.270;2023-02-22T19:04:30;9.80;71.70
46752;DHT22;32497;48.936;9.270;2023-02-22T19:09:36;9.70;72.40
46752;DHT22;32497;48.936;9.270;2023-02-22T19:14:41;9.90;72.30
46752;DHT22;32497;48.936;9.270;2023-02-22T19:19:52;9.90;72.40
46752;DHT22;32497;48.936;9.270;2023-02-22T19:24:54;9.90;72.60
46752;DHT22;32497;48.936;9.270;2023-02-22T19:29:57;10.00;73.00
46752;DHT22;32497;48.936;9.270;2023-02-22T19:34:58;9.90;73.30
46752;DHT22;32497;48.936;9.270;2023-02-22T19:40:04;9.90;73.60
46752;DHT22;32497;48.936;9.270;2023-02-22T19:45:08;9.80;74.10
46752;DHT22;32497;48.936;9.270;2023-02-22T19:50:10;9.70;74.30
46752;DHT22;32497;48.936;9.270;2023-02-22T19:55:17;9.70;74.50
46752;DHT22;32497;48.936;9.270;2023-02-22T20:00:20;9.80;74.40
46752;DHT22;32497;48.936;9.270;2023-02-22T20:05:21;9.80;74.40
46752;DHT22;32497;48.936;9.270;2023-02-22T20:10:25;9.80;74.50
46752;DHT22;32497;48.936;9.270;2023-02-22T20:15:30;9.80;74.70
46752;DHT22;32497;48.936;9.270;2023-02-22T20:20:32;9.80;74.80
46752;DHT22;32497;48.936;9.270;2023-02-22T20:25:34;9.90;75.00
46752;DHT22;32497;48.936;9.270;2023-02-22T20:30:37;9.90;75.10
46752;DHT22;32497;48.936;9.270;2023-02-22T20:35:38;9.90;75.20
46752;DHT22;32497;48.936;9.270;2023-02-22T20:40:39;9.90;75.30
46752;DHT22;32497;48.936;9.270;2023-02-22T20:45:42;9.90;75.70
46752;DHT22;32497;48.936;9.270;2023-02-22T20:50:43;9.90;75.90
46752;DHT22;32497;48.936;9.270;2023-02-22T20:55:47;9.80;76.10
46752;DHT22;32497;48.936;9.270;2023-02-22T21:00:50;9.70;76.20
46752;DHT22;32497;48.936;9.270;2023-02-22T21:05:51;9.70;76.60
46752;DHT22;32497;48.936;9.270;2023-02-22T21:10:52;9.50;77.20
46752;DHT22;32497;48.936;9.270;2023-02-22T21:15:55;9.30;77.80
46752;DHT22;32497;48.936;9.270;2023-02-22T21:20:56;9.00;78.90
46752;DHT22;32497;48.936;9.270;2023-02-22T21:25:57;9.00;79.30
46752;DHT22;32497;48.936;9.270;2023-02-22T21:31:05;8.90;80.10
46752;DHT22;32497;48.936;9.270;2023-02-22T21:36:09;8.80;79.90
46752;DHT22;32497;48.936;9.270;2023-02-22T21:41:11;8.60;80.40
46752;DHT22;32497;48.936;9.270;2023-02-22T21:46:14;8.50;80.80
46752;DHT22;32497;48.936;9.270;2023-02-22T21:51:17;8.40;81.10
46752;DHT22;32497;48.936;9.270;2023-02-22T21:56:20;8.40;81.90
46752;DHT22;32497;48.936;9.270;2023-02-22T22:01:23;8.40;81.50
46752;DHT22;32497;48.936;9.270;2023-02-22T22:06:25;8.50;82.50
46752;DHT22;32497;48.936;9.270;2023-02-22T22:11:27;8.70;82.00
46752;DHT22;32497;48.936;9.270;2023-02-22T22:16:29;8.80;81.60
46752;DHT22;32497;48.936;9.270;2023-02-22T22:21:30;8.90;81.20
46752;DHT22;32497;48.936;9.270;2023-02-22T22:26:31;8.80;80.80
46752;DHT22;32497;48.936;9.270;2023-02-22T22:31:34;8.80;81.40
46752;DHT22;32497;48.936;9.270;2023-02-22T22:36:36;8.80;81.70
46752;DHT22;32497;48.936;9.270;2023-02-22T22:41:37;8.70;82.00
46752;DHT22;32497;48.936;9.270;2023-02-22T22:46:40;8.60;82.00
46752;DHT22;32497;48.936;9.270;2023-02-22T22:51:41;8.60;82.10
46752;DHT22;32497;48.936;9.270;2023-02-22T22:56:42;8.50;82.40
46752;DHT22;32497;48.936;9.270;2023-02-22T23:01:45;8.40;83.20
46752;DHT22;32497;48.936;9.270;2023-02-22T23:06:47;8.40;83.20
46752;DHT22;32497;48.936;9.270;2023-02-22T23:11:50;8.40;83.20
46752;DHT22;32497;48.936;9.270;2023-02-22T23:16:53;8.40;83.20
46752;DHT22;32497;48.936;9.270;2023-02-22T23:21:54;8.50;83.00
46752;DHT22;32497;48.936;9.270;2023-02-22T23:26:56;8.50;82.90
46752;DHT22;32497;48.936;9.270;2023-02-22T23:31:59;8.40;82.90
46752;DHT22;32497;48.936;9.270;2023-02-22T23:37:00;8.50;82.90
46752;DHT22;32497;48.936;9.270;2023-02-22T23:42:01;8.60;82.60
46752;DHT22;32497;48.936;9.270;2023-02-22T23:47:03;8.60;82.90
46752;DHT22;32497;48.936;9.270;2023-02-22T23:52:06;8.60;82.10
46752;DHT22;32497;48.936;9.270;2023-02-22T23:57:07;8.60;82.00
